sensor_id;sensor_type;location;lat;lon;timestamp;temperature;humidity
14985;DHT22;7588;62.368;25.902;2023-07-29T00:01:51;12.90;99.90
14985;DHT22;7588;62.368;25.902;2023-07-29T00:04:19;12.90;99.90
14985;DHT22;7588;62.368;25.902;2023-07-29T00:06:45;12.90;99.90
14985;DHT22;7588;62.368;25.902;2023-07-29T00:09:11;12.80;99.90
14985;DHT22;7588;62.368;25.902;2023-07-29T00:11:38;12.80;99.90
14985;DHT22;7588;62.368;25.902;2023-07-29T00:14:03;12.80;99.90
14985;DHT22;7588;62.368;25.902;2023-07-29T00:16:29;12.80;99.90
14985;DHT22;7588;62.368;25.902;2023-07-29T00:18:55;12.80;99.90
14985;DHT22;7588;62.368;25.902;2023-07-29T00:21:21;12.70;99.90
14985;DHT22;7588;62.368;25.902;2023-07-29T00:23:46;12.70;99.90
14985;DHT22;7588;62.368;25.902;2023-07-29T00:26:12;12.70;99.90
14985;DHT22;7588;62.368;25.902;2023-07-29T00:28:37;12.70;99.90
14985;DHT22;7588;62.368;25.902;2023-07-29T00:31:03;12.60;99.90
14985;DHT22;7588;62.368;25.902;2023-07-29T00:33:29;12.70;99.90
14985;DHT22;7588;62.368;25.902;2023-07-29T00:35:54;12.70;99.90
14985;DHT22;7588;62.368;25.902;2023-07-29T00:38:20;12.60;99.90
14985;DHT22;7588;62.368;25.902;2023-07-29T00:40:46;12.60;99.90
14985;DHT22;7588;62.368;25.902;2023-07-29T00:43:12;12.60;99.90
14985;DHT22;7588;62.368;25.902;2023-07-29T00:45:38;12.70;99.90
14985;DHT22;7588;62.368;25.902;2023-07-29T00:48:04;12.60;99.90
14985;DHT22;7588;62.368;25.902;2023-07-29T00:50:31;12.70;99.90
14985;DHT22;7588;62.368;25.902;2023-07-29T00:52:57;12.60;99.90
14985;DHT22;7588;62.368;25.902;2023-07-29T00:55:24;12.60;99.90
14985;DHT22;7588;62.368;25.902;2023-07-29T00:57:51;12.60;99.90
14985;DHT22;7588;62.368;25.902;2023-07-29T01:00:20;12.60;99.90
14985;DHT22;7588;62.368;25.902;2023-07-29T01:02:46;12.60;99.90
14985;DHT22;7588;62.368;25.902;2023-07-29T01:05:14;12.60;99.90
14985;DHT22;7588;62.368;25.902;2023-07-29T01:08:06;12.60;99.90
14985;DHT22;7588;62.368;25.902;2023-07-29T01:13:39;12.60;99.90
14985;DHT22;7588;62.368;25.902;2023-07-29T01:16:17;12.60;99.90
14985;DHT22;7588;62.368;25.902;2023-07-29T01:18:47;12.60;99.90
14985;DHT22;7588;62.368;25.902;2023-07-29T01:21:13;12.60;99.90
14985;DHT22;7588;62.368;25.902;2023-07-29T01:23:39;12.60;99.90
14985;DHT22;7588;62.368;25.902;2023-07-29T01:26:05;12.60;99.90
14985;DHT22;7588;62.368;25.902;2023-07-29T01:28:31;12.60;99.90
14985;DHT22;7588;62.368;25.902;2023-07-29T01:31:02;12.70;99.90
14985;DHT22;7588;62.368;25.902;2023-07-29T01:33:40;12.70;99.90
14985;DHT22;7588;62.368;25.902;2023-07-29T01:36:21;12.70;99.90
14985;DHT22;7588;62.368;25.902;2023-07-29T01:38:51;12.70;99.90
14985;DHT22;7588;62.368;25.902;2023-07-29T01:41:18;12.70;99.90
14985;DHT22;7588;62.368;25.902;2023-07-29T01:43:45;12.70;99.90
14985;DHT22;7588;62.368;25.902;2023-07-29T01:46:12;12.70;99.90
14985;DHT22;7588;62.368;25.902;2023-07-29T01:48:39;12.70;99.90
14985;DHT22;7588;62.368;25.902;2023-07-29T01:51:05;12.70;99.90
14985;DHT22;7588;62.368;25.902;2023-07-29T01:53:31;12.70;99.90
14985;DHT22;7588;62.368;25.902;2023-07-29T01:55:57;12.70;99.90
14985;DHT22;7588;62.368;25.902;2023-07-29T01:58:23;12.70;99.90
14985;DHT22;7588;62.368;25.902;2023-07-29T02:00:49;12.70;99.90
14985;DHT22;7588;62.368;25.902;2023-07-29T02:03:15;12.70;99.90
14985;DHT22;7588;62.368;25.902;2023-07-29T02:05:40;12.70;99.90
14985;DHT22;7588;62.368;25.902;2023-07-29T02:08:09;12.70;99.90
14985;DHT22;7588;62.368;25.902;2023-07-29T02:10:35;12.70;99.90
14985;DHT22;7588;62.368;25.902;2023-07-29T02:13:00;12.70;99.90
14985;DHT22;7588;62.368;25.902;2023-07-29T02:15:26;12.70;99.90
14985;DHT22;7588;62.368;25.902;2023-07-29T02:17:52;12.70;99.90
14985;DHT22;7588;62.368;25.902;2023-07-29T02:20:17;12.70;99.90
14985;DHT22;7588;62.368;25.902;2023-07-29T02:22:43;12.70;99.90
14985;DHT22;7588;62.368;25.902;2023-07-29T02:25:09;12.70;99.90
14985;DHT22;7588;62.368;25.902;2023-07-29T02:27:35;12.70;99.90
14985;DHT22;7588;62.368;25.902;2023-07-29T02:30:01;12.70;99.90
14985;DHT22;7588;62.368;25.902;2023-07-29T02:32:27;12.60;99.90
14985;DHT22;7588;62.368;25.902;2023-07-29T02:34:53;12.70;99.90
14985;DHT22;7588;62.368;25.902;2023-07-29T02:37:19;12.60;99.90
14985;DHT22;7588;62.368;25.902;2023-07-29T02:39:45;12.60;99.90
14985;DHT22;7588;62.368;25.902;2023-07-29T02:42:11;12.60;99.90
14985;DHT22;7588;62.368;25.902;2023-07-29T02:44:37;12.60;99.90
14985;DHT22;7588;62.368;25.902;2023-07-29T02:47:03;12.60;99.90
14985;DHT22;7588;62.368;25.902;2023-07-29T02:49:29;12.60;99.90
14985;DHT22;7588;62.368;25.902;2023-07-29T02:51:54;12.60;99.90
14985;DHT22;7588;62.368;25.902;2023-07-29T02:54:20;12.60;99.90
14985;DHT22;7588;62.368;25.902;2023-07-29T02:56:46;12.60;99.90
14985;DHT22;7588;62.368;25.902;2023-07-29T02:59:11;12.60;99.90
14985;DHT22;7588;62.368;25.902;2023-07-29T03:01:37;12.60;99.90
14985;DHT22;7588;62.368;25.902;2023-07-29T03:04:03;12.60;99.90
14985;DHT22;7588;62.368;25.902;2023-07-29T03:06:29;12.60;99.90
14985;DHT22;7588;62.368;25.902;2023-07-29T03:08:54;12.70;99.90
14985;DHT22;7588;62.368;25.902;2023-07-29T03:11:20;12.60;99.90
14985;DHT22;7588;62.368;25.902;2023-07-29T03:13:46;12.60;99.90
14985;DHT22;7588;62.368;25.902;2023-07-29T03:16:13;12.60;99.90
14985;DHT22;7588;62.368;25.902;2023-07-29T03:18:41;12.70;99.90
14985;DHT22;7588;62.368;25.902;2023-07-29T03:21:07;12.70;99.90
14985;DHT22;7588;62.368;25.902;2023-07-29T03:23:33;12.60;99.90
14985;DHT22;7588;62.368;25.902;2023-07-29T03:26:00;12.60;99.90
14985;DHT22;7588;62.368;25.902;2023-07-29T03:28:27;12.60;99.90
14985;DHT22;7588;62.368;25.902;2023-07-29T03:30:54;12.60;99.90
14985;DHT22;7588;62.368;25.902;2023-07-29T03:33:19;12.60;99.90
14985;DHT22;7588;62.368;25.902;2023-07-29T03:35:45;12.70;99.90
14985;DHT22;7588;62.368;25.902;2023-07-29T03:38:11;12.60;99.90
14985;DHT22;7588;62.368;25.902;2023-07-29T03:40:38;12.70;99.90
14985;DHT22;7588;62.368;25.902;2023-07-29T03:43:04;12.70;99.90
14985;DHT22;7588;62.368;25.902;2023-07-29T03:45:30;12.70;99.90
14985;DHT22;7588;62.368;25.902;2023-07-29T03:47:56;12.70;99.90
14985;DHT22;7588;62.368;25.902;2023-07-29T03:50:21;12.70;99.90
14985;DHT22;7588;62.368;25.902;2023-07-29T03:52:47;12.70;99.90
14985;DHT22;7588;62.368;25.902;2023-07-29T03:55:13;12.70;99.90
14985;DHT22;7588;62.368;25.902;2023-07-29T03:57:39;12.70;99.90
14985;DHT22;7588;62.368;25.902;2023-07-29T04:00:05;12.70;99.90
14985;DHT22;7588;62.368;25.902;2023-07-29T04:02:31;12.70;99.90
14985;DHT22;7588;62.368;25.902;2023-07-29T04:04:57;12.70;99.90
14985;DHT22;7588;62.368;25.902;2023-07-29T04:07:23;12.70;99.90
14985;DHT22;7588;62.368;25.902;2023-07-29T04:09:48;12.70;99.90
14985;DHT22;7588;62.368;25.902;2023-07-29T04:12:15;12.70;99.90
14985;DHT22;7588;62.368;25.902;2023-07-29T04:14:41;12.70;99.90
14985;DHT22;7588;62.368;25.902;2023-07-29T04:17:07;12.70;99.90
14985;DHT22;7588;62.368;25.902;2023-07-29T04:19:33;12.80;99.90
14985;DHT22;7588;62.368;25.902;2023-07-29T04:21:59;12.80;99.90
14985;DHT22;7588;62.368;25.902;2023-07-29T04:24:25;12.80;99.90
14985;DHT22;7588;62.368;25.902;2023-07-29T04:26:50;12.80;99.90
14985;DHT22;7588;62.368;25.902;2023-07-29T04:29:16;12.80;99.90
14985;DHT22;7588;62.368;25.902;2023-07-29T04:31:42;12.70;99.90
14985;DHT22;7588;62.368;25.902;2023-07-29T04:34:08;12.80;99.90
14985;DHT22;7588;62.368;25.902;2023-07-29T04:36:34;12.80;99.90
14985;DHT22;7588;62.368;25.902;2023-07-29T04:39:00;12.80;99.90
14985;DHT22;7588;62.368;25.902;2023-07-29T04:41:26;12.80;99.90
14985;DHT22;7588;62.368;25.902;2023-07-29T04:43:51;12.80;99.90
14985;DHT22;7588;62.368;25.902;2023-07-29T04:46:18;12.80;99.90
14985;DHT22;7588;62.368;25.902;2023-07-29T04:48:43;12.80;99.90
14985;DHT22;7588;62.368;25.902;2023-07-29T04:51:09;12.80;99.90
14985;DHT22;7588;62.368;25.902;2023-07-29T04:53:35;12.80;99.90
14985;DHT22;7588;62.368;25.902;2023-07-29T04:56:02;12.80;99.90
14985;DHT22;7588;62.368;25.902;2023-07-29T04:58:28;12.80;99.90
14985;DHT22;7588;62.368;25.902;2023-07-29T05:00:55;12.80;99.90
14985;DHT22;7588;62.368;25.902;2023-07-29T05:03:21;12.90;99.90
14985;DHT22;7588;62.368;25.902;2023-07-29T05:05:47;12.90;99.90
14985;DHT22;7588;62.368;25.902;2023-07-29T05:08:12;12.90;99.90
14985;DHT22;7588;62.368;25.902;2023-07-29T05:10:38;12.90;99.90
14985;DHT22;7588;62.368;25.902;2023-07-29T05:13:04;12.90;99.90
14985;DHT22;7588;62.368;25.902;2023-07-29T05:15:29;12.90;99.90
14985;DHT22;7588;62.368;25.902;2023-07-29T05:17:55;13.00;99.90
14985;DHT22;7588;62.368;25.902;2023-07-29T05:20:21;13.00;99.90
14985;DHT22;7588;62.368;25.902;2023-07-29T05:22:47;13.00;99.90
14985;DHT22;7588;62.368;25.902;2023-07-29T05:25:12;13.00;99.90
14985;DHT22;7588;62.368;25.902;2023-07-29T05:27:38;13.00;99.90
14985;DHT22;7588;62.368;25.902;2023-07-29T05:30:04;13.10;99.90
14985;DHT22;7588;62.368;25.902;2023-07-29T05:32:30;13.10;99.90
14985;DHT22;7588;62.368;25.902;2023-07-29T05:34:56;13.10;99.90
14985;DHT22;7588;62.368;25.902;2023-07-29T05:37:21;13.20;99.90
14985;DHT22;7588;62.368;25.902;2023-07-29T05:39:47;13.20;99.90
14985;DHT22;7588;62.368;25.902;2023-07-29T05:42:13;13.20;99.90
14985;DHT22;7588;62.368;25.902;2023-07-29T05:44:38;13.20;99.90
14985;DHT22;7588;62.368;25.902;2023-07-29T05:47:04;13.20;99.90
14985;DHT22;7588;62.368;25.902;2023-07-29T05:49:30;13.20;99.90
14985;DHT22;7588;62.368;25.902;2023-07-29T05:51:56;13.30;99.90
14985;DHT22;7588;62.368;25.902;2023-07-29T05:54:22;13.30;99.90
14985;DHT22;7588;62.368;25.902;2023-07-29T05:56:47;13.30;99.90
14985;DHT22;7588;62.368;25.902;2023-07-29T05:59:13;13.30;99.90
14985;DHT22;7588;62.368;25.902;2023-07-29T06:01:39;13.40;99.90
14985;DHT22;7588;62.368;25.902;2023-07-29T06:04:05;13.40;99.90
14985;DHT22;7588;62.368;25.902;2023-07-29T06:06:31;13.40;99.90
14985;DHT22;7588;62.368;25.902;2023-07-29T06:08:56;13.30;99.90
14985;DHT22;7588;62.368;25.902;2023-07-29T06:11:23;13.30;99.90
14985;DHT22;7588;62.368;25.902;2023-07-29T06:13:49;13.30;99.90
14985;DHT22;7588;62.368;25.902;2023-07-29T06:16:15;13.40;99.90
14985;DHT22;7588;62.368;25.902;2023-07-29T06:18:40;13.40;99.90
14985;DHT22;7588;62.368;25.902;2023-07-29T06:21:06;13.40;99.90
14985;DHT22;7588;62.368;25.902;2023-07-29T06:23:33;13.40;99.90
14985;DHT22;7588;62.368;25.902;2023-07-29T06:25:59;13.40;99.90
14985;DHT22;7588;62.368;25.902;2023-07-29T06:28:26;13.40;99.90
14985;DHT22;7588;62.368;25.902;2023-07-29T06:30:52;13.50;99.90
14985;DHT22;7588;62.368;25.902;2023-07-29T06:33:18;13.40;99.90
14985;DHT22;7588;62.368;25.902;2023-07-29T06:35:44;13.50;99.90
14985;DHT22;7588;62.368;25.902;2023-07-29T06:38:09;13.50;99.90
14985;DHT22;7588;62.368;25.902;2023-07-29T06:40:35;13.50;99.90
14985;DHT22;7588;62.368;25.902;2023-07-29T06:43:01;13.50;99.90
14985;DHT22;7588;62.368;25.902;2023-07-29T06:45:27;13.50;99.90
14985;DHT22;7588;62.368;25.902;2023-07-29T06:47:52;13.60;99.90
14985;DHT22;7588;62.368;25.902;2023-07-29T06:50:18;13.50;99.90
14985;DHT22;7588;62.368;25.902;2023-07-29T06:52:44;13.60;99.90
14985;DHT22;7588;62.368;25.902;2023-07-29T06:55:10;13.50;99.90
14985;DHT22;7588;62.368;25.902;2023-07-29T06:57:36;13.50;99.90
14985;DHT22;7588;62.368;25.902;2023-07-29T07:00:02;13.60;99.90
14985;DHT22;7588;62.368;25.902;2023-07-29T07:02:28;13.60;99.90
14985;DHT22;7588;62.368;25.902;2023-07-29T07:04:54;13.60;99.90
14985;DHT22;7588;62.368;25.902;2023-07-29T07:07:20;13.60;99.90
14985;DHT22;7588;62.368;25.902;2023-07-29T07:09:45;13.60;99.90
14985;DHT22;7588;62.368;25.902;2023-07-29T07:12:11;13.60;99.90
14985;DHT22;7588;62.368;25.902;2023-07-29T07:14:37;13.60;99.90
14985;DHT22;7588;62.368;25.902;2023-07-29T07:17:03;13.60;99.90
14985;DHT22;7588;62.368;25.902;2023-07-29T07:19:29;13.60;99.90
14985;DHT22;7588;62.368;25.902;2023-07-29T07:21:55;13.60;99.90
14985;DHT22;7588;62.368;25.902;2023-07-29T07:24:21;13.60;99.90
14985;DHT22;7588;62.368;25.902;2023-07-29T07:26:46;13.60;99.90
14985;DHT22;7588;62.368;25.902;2023-07-29T07:29:12;13.70;99.90
14985;DHT22;7588;62.368;25.902;2023-07-29T07:31:37;13.70;99.90
14985;DHT22;7588;62.368;25.902;2023-07-29T07:34:03;13.80;99.90
14985;DHT22;7588;62.368;25.902;2023-07-29T07:36:29;13.80;99.90
14985;DHT22;7588;62.368;25.902;2023-07-29T07:38:56;13.70;99.90
14985;DHT22;7588;62.368;25.902;2023-07-29T07:41:21;13.80;99.90
14985;DHT22;7588;62.368;25.902;2023-07-29T07:43:47;13.80;99.90
14985;DHT22;7588;62.368;25.902;2023-07-29T07:46:13;13.80;99.90
14985;DHT22;7588;62.368;25.902;2023-07-29T07:48:38;13.80;99.90
14985;DHT22;7588;62.368;25.902;2023-07-29T07:51:13;13.80;99.90
14985;DHT22;7588;62.368;25.902;2023-07-29T07:53:39;13.90;99.90
14985;DHT22;7588;62.368;25.902;2023-07-29T07:56:06;13.90;99.90
14985;DHT22;7588;62.368;25.902;2023-07-29T07:58:32;14.00;99.90
14985;DHT22;7588;62.368;25.902;2023-07-29T08:01:05;14.00;99.90
14985;DHT22;7588;62.368;25.902;2023-07-29T08:03:31;14.00;99.90
14985;DHT22;7588;62.368;25.902;2023-07-29T08:05:57;14.00;99.90
14985;DHT22;7588;62.368;25.902;2023-07-29T08:08:23;14.10;99.90
14985;DHT22;7588;62.368;25.902;2023-07-29T08:10:49;14.10;99.90
14985;DHT22;7588;62.368;25.902;2023-07-29T08:13:14;14.10;99.90
14985;DHT22;7588;62.368;25.902;2023-07-29T08:15:40;14.20;99.90
14985;DHT22;7588;62.368;25.902;2023-07-29T08:18:06;14.20;99.90
14985;DHT22;7588;62.368;25.902;2023-07-29T08:20:32;14.20;99.90
14985;DHT22;7588;62.368;25.902;2023-07-29T08:22:58;14.20;99.90
14985;DHT22;7588;62.368;25.902;2023-07-29T08:25:24;14.20;99.90
14985;DHT22;7588;62.368;25.902;2023-07-29T08:27:49;14.20;99.90
14985;DHT22;7588;62.368;25.902;2023-07-29T08:30:15;14.20;99.90
14985;DHT22;7588;62.368;25.902;2023-07-29T08:32:41;14.20;99.90
14985;DHT22;7588;62.368;25.902;2023-07-29T08:35:07;14.20;99.90
14985;DHT22;7588;62.368;25.902;2023-07-29T08:37:33;14.20;99.90
14985;DHT22;7588;62.368;25.902;2023-07-29T08:39:59;14.20;99.90
14985;DHT22;7588;62.368;25.902;2023-07-29T08:42:29;14.30;99.90
14985;DHT22;7588;62.368;25.902;2023-07-29T08:45:00;14.30;99.90
14985;DHT22;7588;62.368;25.902;2023-07-29T08:47:27;14.30;99.90
14985;DHT22;7588;62.368;25.902;2023-07-29T08:49:54;14.30;99.90
14985;DHT22;7588;62.368;25.902;2023-07-29T08:52:20;14.30;99.90
14985;DHT22;7588;62.368;25.902;2023-07-29T08:54:46;14.30;99.90
14985;DHT22;7588;62.368;25.902;2023-07-29T08:57:13;14.30;99.90
14985;DHT22;7588;62.368;25.902;2023-07-29T08:59:39;14.30;99.90
14985;DHT22;7588;62.368;25.902;2023-07-29T09:02:06;14.40;99.90
14985;DHT22;7588;62.368;25.902;2023-07-29T09:04:32;14.40;99.90
14985;DHT22;7588;62.368;25.902;2023-07-29T09:06:58;14.50;99.90
14985;DHT22;7588;62.368;25.902;2023-07-29T09:09:25;14.50;99.90
14985;DHT22;7588;62.368;25.902;2023-07-29T09:11:51;14.50;99.90
14985;DHT22;7588;62.368;25.902;2023-07-29T09:14:16;14.50;99.90
14985;DHT22;7588;62.368;25.902;2023-07-29T09:16:42;14.50;99.90
14985;DHT22;7588;62.368;25.902;2023-07-29T09:19:08;14.50;99.90
14985;DHT22;7588;62.368;25.902;2023-07-29T09:21:39;14.50;99.90
14985;DHT22;7588;62.368;25.902;2023-07-29T09:24:05;14.50;99.90
14985;DHT22;7588;62.368;25.902;2023-07-29T09:26:33;14.50;99.90
14985;DHT22;7588;62.368;25.902;2023-07-29T09:28:59;14.50;99.90
14985;DHT22;7588;62.368;25.902;2023-07-29T09:31:26;14.50;99.90
14985;DHT22;7588;62.368;25.902;2023-07-29T09:34:00;14.50;99.90
14985;DHT22;7588;62.368;25.902;2023-07-29T09:36:27;14.50;99.90
14985;DHT22;7588;62.368;25.902;2023-07-29T09:38:54;14.50;99.90
14985;DHT22;7588;62.368;25.902;2023-07-29T09:41:22;14.40;99.90
14985;DHT22;7588;62.368;25.902;2023-07-29T09:43:58;14.40;99.90
14985;DHT22;7588;62.368;25.902;2023-07-29T09:46:25;14.40;99.90
14985;DHT22;7588;62.368;25.902;2023-07-29T09:48:54;14.40;99.90
14985;DHT22;7588;62.368;25.902;2023-07-29T09:51:22;14.30;99.90
14985;DHT22;7588;62.368;25.902;2023-07-29T09:53:48;14.40;99.90
14985;DHT22;7588;62.368;25.902;2023-07-29T09:56:15;14.40;99.90
14985;DHT22;7588;62.368;25.902;2023-07-29T09:58:46;14.40;99.90
14985;DHT22;7588;62.368;25.902;2023-07-29T10:01:13;14.40;99.90
14985;DHT22;7588;62.368;25.902;2023-07-29T10:03:39;14.40;99.90
14985;DHT22;7588;62.368;25.902;2023-07-29T10:06:07;14.40;99.90
14985;DHT22;7588;62.368;25.902;2023-07-29T10:08:33;14.40;99.90
14985;DHT22;7588;62.368;25.902;2023-07-29T10:11:08;14.40;99.90
14985;DHT22;7588;62.368;25.902;2023-07-29T10:13:34;14.40;99.90
14985;DHT22;7588;62.368;25.902;2023-07-29T10:16:00;14.50;99.90
14985;DHT22;7588;62.368;25.902;2023-07-29T10:18:29;14.50;99.90
14985;DHT22;7588;62.368;25.902;2023-07-29T10:20:57;14.50;99.90
14985;DHT22;7588;62.368;25.902;2023-07-29T10:23:25;14.50;99.90
14985;DHT22;7588;62.368;25.902;2023-07-29T10:26:05;14.50;99.90
14985;DHT22;7588;62.368;25.902;2023-07-29T10:28:32;14.50;99.90
14985;DHT22;7588;62.368;25.902;2023-07-29T10:30:59;14.50;99.90
14985;DHT22;7588;62.368;25.902;2023-07-29T10:33:26;14.60;99.90
14985;DHT22;7588;62.368;25.902;2023-07-29T10:35:53;14.60;99.90
14985;DHT22;7588;62.368;25.902;2023-07-29T10:38:22;14.70;99.90
14985;DHT22;7588;62.368;25.902;2023-07-29T10:40:52;14.70;99.90
14985;DHT22;7588;62.368;25.902;2023-07-29T10:43:33;14.80;99.90
14985;DHT22;7588;62.368;25.902;2023-07-29T10:48:55;14.80;99.90
14985;DHT22;7588;62.368;25.902;2023-07-29T10:51:37;14.80;99.90
14985;DHT22;7588;62.368;25.902;2023-07-29T10:54:13;14.80;99.90
14985;DHT22;7588;62.368;25.902;2023-07-29T10:56:44;14.70;99.90
14985;DHT22;7588;62.368;25.902;2023-07-29T11:01:42;14.60;99.90
14985;DHT22;7588;62.368;25.902;2023-07-29T11:07:18;14.50;99.90
14985;DHT22;7588;62.368;25.902;2023-07-29T11:12:39;14.50;99.90
14985;DHT22;7588;62.368;25.902;2023-07-29T11:15:21;14.50;99.90
14985;DHT22;7588;62.368;25.902;2023-07-29T11:17:49;14.60;99.90
14985;DHT22;7588;62.368;25.902;2023-07-29T11:20:16;14.60;99.90
14985;DHT22;7588;62.368;25.902;2023-07-29T11:22:42;14.70;99.90
14985;DHT22;7588;62.368;25.902;2023-07-29T11:25:10;14.70;99.90
14985;DHT22;7588;62.368;25.902;2023-07-29T11:27:37;14.80;99.90
14985;DHT22;7588;62.368;25.902;2023-07-29T11:30:08;14.90;99.90
14985;DHT22;7588;62.368;25.902;2023-07-29T11:32:35;14.90;99.90
14985;DHT22;7588;62.368;25.902;2023-07-29T11:35:05;15.00;99.90
14985;DHT22;7588;62.368;25.902;2023-07-29T11:37:33;15.00;99.90
14985;DHT22;7588;62.368;25.902;2023-07-29T11:39:59;15.00;99.90
14985;DHT22;7588;62.368;25.902;2023-07-29T11:42:26;15.00;99.90
14985;DHT22;7588;62.368;25.902;2023-07-29T11:44:53;15.00;99.90
14985;DHT22;7588;62.368;25.902;2023-07-29T11:47:21;15.00;99.90
14985;DHT22;7588;62.368;25.902;2023-07-29T11:49:47;15.00;99.90
14985;DHT22;7588;62.368;25.902;2023-07-29T11:52:13;15.00;99.90
14985;DHT22;7588;62.368;25.902;2023-07-29T11:54:39;15.00;99.90
14985;DHT22;7588;62.368;25.902;2023-07-29T11:57:08;15.00;99.90
14985;DHT22;7588;62.368;25.902;2023-07-29T11:59:35;14.90;99.90
14985;DHT22;7588;62.368;25.902;2023-07-29T12:02:06;15.00;99.90
14985;DHT22;7588;62.368;25.902;2023-07-29T12:04:35;15.00;99.90
14985;DHT22;7588;62.368;25.902;2023-07-29T12:07:02;15.10;99.90
14985;DHT22;7588;62.368;25.902;2023-07-29T12:09:28;15.10;99.90
14985;DHT22;7588;62.368;25.902;2023-07-29T12:11:55;15.10;99.90
14985;DHT22;7588;62.368;25.902;2023-07-29T12:14:20;15.10;99.90
14985;DHT22;7588;62.368;25.902;2023-07-29T12:16:48;15.20;99.90
14985;DHT22;7588;62.368;25.902;2023-07-29T12:19:15;15.20;99.90
14985;DHT22;7588;62.368;25.902;2023-07-29T12:21:41;15.10;99.90
14985;DHT22;7588;62.368;25.902;2023-07-29T12:24:07;15.10;99.90
14985;DHT22;7588;62.368;25.902;2023-07-29T12:26:35;15.10;99.90
14985;DHT22;7588;62.368;25.902;2023-07-29T12:29:14;15.00;99.90
14985;DHT22;7588;62.368;25.902;2023-07-29T12:31:40;15.00;99.90
14985;DHT22;7588;62.368;25.902;2023-07-29T12:34:06;15.00;99.90
14985;DHT22;7588;62.368;25.902;2023-07-29T12:36:46;14.90;99.90
14985;DHT22;7588;62.368;25.902;2023-07-29T12:39:28;14.90;99.90
14985;DHT22;7588;62.368;25.902;2023-07-29T12:41:56;14.90;99.90
14985;DHT22;7588;62.368;25.902;2023-07-29T12:44:23;14.90;99.90
14985;DHT22;7588;62.368;25.902;2023-07-29T12:46:49;14.90;99.90
14985;DHT22;7588;62.368;25.902;2023-07-29T12:49:15;14.80;99.90
14985;DHT22;7588;62.368;25.902;2023-07-29T12:51:41;14.90;99.90
14985;DHT22;7588;62.368;25.902;2023-07-29T12:54:07;14.90;99.90
14985;DHT22;7588;62.368;25.902;2023-07-29T12:56:33;14.80;99.90
14985;DHT22;7588;62.368;25.902;2023-07-29T12:58:59;14.90;99.90
14985;DHT22;7588;62.368;25.902;2023-07-29T13:01:26;14.90;99.90
14985;DHT22;7588;62.368;25.902;2023-07-29T13:03:52;15.00;99.90
14985;DHT22;7588;62.368;25.902;2023-07-29T13:06:18;15.10;99.90
14985;DHT22;7588;62.368;25.902;2023-07-29T13:08:44;15.10;99.90
14985;DHT22;7588;62.368;25.902;2023-07-29T13:11:10;15.20;99.90
14985;DHT22;7588;62.368;25.902;2023-07-29T13:13:36;15.20;99.90
14985;DHT22;7588;62.368;25.902;2023-07-29T13:16:02;15.20;99.90
14985;DHT22;7588;62.368;25.902;2023-07-29T13:18:28;15.20;99.90
14985;DHT22;7588;62.368;25.902;2023-07-29T13:20:54;15.30;99.90
14985;DHT22;7588;62.368;25.902;2023-07-29T13:23:20;15.30;99.90
14985;DHT22;7588;62.368;25.902;2023-07-29T13:25:46;15.30;99.90
14985;DHT22;7588;62.368;25.902;2023-07-29T13:28:12;15.40;99.90
14985;DHT22;7588;62.368;25.902;2023-07-29T13:30:39;15.40;99.90
14985;DHT22;7588;62.368;25.902;2023-07-29T13:33:06;15.40;99.90
14985;DHT22;7588;62.368;25.902;2023-07-29T13:35:31;15.40;99.90
14985;DHT22;7588;62.368;25.902;2023-07-29T13:37:57;15.40;99.90
14985;DHT22;7588;62.368;25.902;2023-07-29T13:40:22;15.40;99.90
14985;DHT22;7588;62.368;25.902;2023-07-29T13:42:48;15.40;99.90
14985;DHT22;7588;62.368;25.902;2023-07-29T13:45:14;15.40;99.90
14985;DHT22;7588;62.368;25.902;2023-07-29T13:47:40;15.30;99.90
14985;DHT22;7588;62.368;25.902;2023-07-29T13:50:06;15.30;99.90
14985;DHT22;7588;62.368;25.902;2023-07-29T13:52:36;15.30;99.90
14985;DHT22;7588;62.368;25.902;2023-07-29T13:55:03;15.30;99.90
14985;DHT22;7588;62.368;25.902;2023-07-29T13:57:29;15.30;99.90
14985;DHT22;7588;62.368;25.902;2023-07-29T13:59:54;15.30;99.90
14985;DHT22;7588;62.368;25.902;2023-07-29T14:02:20;15.30;99.90
14985;DHT22;7588;62.368;25.902;2023-07-29T14:04:46;15.40;99.90
14985;DHT22;7588;62.368;25.902;2023-07-29T14:07:11;15.40;99.90
14985;DHT22;7588;62.368;25.902;2023-07-29T14:09:37;15.40;99.90
14985;DHT22;7588;62.368;25.902;2023-07-29T14:12:04;15.40;99.90
14985;DHT22;7588;62.368;25.902;2023-07-29T14:14:30;15.40;99.90
14985;DHT22;7588;62.368;25.902;2023-07-29T14:16:56;15.40;99.90
14985;DHT22;7588;62.368;25.902;2023-07-29T14:19:23;15.40;99.90
14985;DHT22;7588;62.368;25.902;2023-07-29T14:21:48;15.40;99.90
14985;DHT22;7588;62.368;25.902;2023-07-29T14:24:14;15.40;99.90
14985;DHT22;7588;62.368;25.902;2023-07-29T14:26:41;15.40;99.90
14985;DHT22;7588;62.368;25.902;2023-07-29T14:29:07;15.40;99.90
14985;DHT22;7588;62.368;25.902;2023-07-29T14:31:32;15.40;99.90
14985;DHT22;7588;62.368;25.902;2023-07-29T14:33:58;15.40;99.90
14985;DHT22;7588;62.368;25.902;2023-07-29T14:36:25;15.40;99.90
14985;DHT22;7588;62.368;25.902;2023-07-29T14:38:51;15.40;99.90
14985;DHT22;7588;62.368;25.902;2023-07-29T14:41:17;15.30;99.90
14985;DHT22;7588;62.368;25.902;2023-07-29T14:43:42;15.40;99.90
14985;DHT22;7588;62.368;25.902;2023-07-29T14:46:08;15.40;99.90
14985;DHT22;7588;62.368;25.902;2023-07-29T14:48:34;15.40;99.90
14985;DHT22;7588;62.368;25.902;2023-07-29T14:50:59;15.40;99.90
14985;DHT22;7588;62.368;25.902;2023-07-29T14:53:25;15.40;99.90
14985;DHT22;7588;62.368;25.902;2023-07-29T14:55:51;15.40;99.90
14985;DHT22;7588;62.368;25.902;2023-07-29T14:58:17;15.40;99.90
14985;DHT22;7588;62.368;25.902;2023-07-29T15:00:42;15.30;99.90
14985;DHT22;7588;62.368;25.902;2023-07-29T15:03:08;15.40;99.90
14985;DHT22;7588;62.368;25.902;2023-07-29T15:05:34;15.40;99.90
14985;DHT22;7588;62.368;25.902;2023-07-29T15:08:00;15.40;99.90
14985;DHT22;7588;62.368;25.902;2023-07-29T15:10:25;15.40;99.90
14985;DHT22;7588;62.368;25.902;2023-07-29T15:12:51;15.30;99.90
14985;DHT22;7588;62.368;25.902;2023-07-29T15:15:17;15.30;99.90
14985;DHT22;7588;62.368;25.902;2023-07-29T15:17:43;15.30;99.90
14985;DHT22;7588;62.368;25.902;2023-07-29T15:20:09;15.20;99.90
14985;DHT22;7588;62.368;25.902;2023-07-29T15:22:36;15.20;99.90
14985;DHT22;7588;62.368;25.902;2023-07-29T15:25:01;15.20;99.90
14985;DHT22;7588;62.368;25.902;2023-07-29T15:27:28;15.20;99.90
14985;DHT22;7588;62.368;25.902;2023-07-29T15:29:54;15.10;99.90
14985;DHT22;7588;62.368;25.902;2023-07-29T15:32:20;15.10;99.90
14985;DHT22;7588;62.368;25.902;2023-07-29T15:34:47;15.10;99.90
14985;DHT22;7588;62.368;25.902;2023-07-29T15:37:13;15.10;99.90
14985;DHT22;7588;62.368;25.902;2023-07-29T15:39:38;15.10;99.90
14985;DHT22;7588;62.368;25.902;2023-07-29T15:42:04;15.00;99.90